sensor_id;sensor_type;location;lat;lon;timestamp;temperature;humidity
4677;DHT22;2352;48.180;11.478;2022-11-21T00:01:41;6.30;99.90
4677;DHT22;2352;48.180;11.478;2022-11-21T00:04:44;6.40;99.90
4677;DHT22;2352;48.180;11.478;2022-11-21T00:07:48;6.40;99.90
4677;DHT22;2352;48.180;11.478;2022-11-21T00:10:51;6.40;99.90
4677;DHT22;2352;48.180;11.478;2022-11-21T00:13:54;6.40;99.90
4677;DHT22;2352;48.180;11.478;2022-11-21T00:16:57;6.50;99.90
4677;DHT22;2352;48.180;11.478;2022-11-21T00:20:00;6.50;99.90
4677;DHT22;2352;48.180;11.478;2022-11-21T00:23:04;6.50;99.90
4677;DHT22;2352;48.180;11.478;2022-11-21T00:26:09;6.50;99.90
4677;DHT22;2352;48.180;11.478;2022-11-21T00:29:12;6.60;99.90
4677;DHT22;2352;48.180;11.478;2022-11-21T00:32:15;6.60;99.90
4677;DHT22;2352;48.180;11.478;2022-11-21T00:35:18;6.60;99.90
4677;DHT22;2352;48.180;11.478;2022-11-21T00:38:22;6.70;99.90
4677;DHT22;2352;48.180;11.478;2022-11-21T00:41:25;6.70;99.90
4677;DHT22;2352;48.180;11.478;2022-11-21T00:44:28;6.70;99.90
4677;DHT22;2352;48.180;11.478;2022-11-21T00:47:31;6.70;99.90
4677;DHT22;2352;48.180;11.478;2022-11-21T00:50:34;6.70;99.90
4677;DHT22;2352;48.180;11.478;2022-11-21T00:53:38;6.80;99.90
4677;DHT22;2352;48.180;11.478;2022-11-21T00:56:41;6.80;99.90
4677;DHT22;2352;48.180;11.478;2022-11-21T00:59:44;6.90;99.90
4677;DHT22;2352;48.180;11.478;2022-11-21T01:02:47;7.00;99.80
4677;DHT22;2352;48.180;11.478;2022-11-21T01:05:50;7.00;99.90
4677;DHT22;2352;48.180;11.478;2022-11-21T01:08:54;7.00;99.90
4677;DHT22;2352;48.180;11.478;2022-11-21T01:11:57;7.10;99.60
4677;DHT22;2352;48.180;11.478;2022-11-21T01:15:00;7.00;99.70
4677;DHT22;2352;48.180;11.478;2022-11-21T01:18:03;7.00;99.90
4677;DHT22;2352;48.180;11.478;2022-11-21T01:21:10;6.90;99.90
4677;DHT22;2352;48.180;11.478;2022-11-21T01:24:15;7.00;99.90
4677;DHT22;2352;48.180;11.478;2022-11-21T01:27:18;7.10;99.90
4677;DHT22;2352;48.180;11.478;2022-11-21T01:30:21;7.00;99.90
4677;DHT22;2352;48.180;11.478;2022-11-21T01:33:24;6.90;99.90
4677;DHT22;2352;48.180;11.478;2022-11-21T01:36:28;7.00;99.90
4677;DHT22;2352;48.180;11.478;2022-11-21T01:39:32;7.00;99.90
4677;DHT22;2352;48.180;11.478;2022-11-21T01:42:48;6.90;99.90
4677;DHT22;2352;48.180;11.478;2022-11-21T01:45:54;7.00;99.90
4677;DHT22;2352;48.180;11.478;2022-11-21T01:49:01;7.10;99.90
4677;DHT22;2352;48.180;11.478;2022-11-21T01:52:08;7.00;99.90
4677;DHT22;2352;48.180;11.478;2022-11-21T01:55:13;7.10;99.90
4677;DHT22;2352;48.180;11.478;2022-11-21T01:58:16;7.10;99.90
4677;DHT22;2352;48.180;11.478;2022-11-21T02:01:20;7.10;99.90
4677;DHT22;2352;48.180;11.478;2022-11-21T02:04:25;7.10;99.90
4677;DHT22;2352;48.180;11.478;2022-11-21T02:07:33;7.10;99.90
4677;DHT22;2352;48.180;11.478;2022-11-21T02:10:42;7.00;99.90
4677;DHT22;2352;48.180;11.478;2022-11-21T02:13:48;7.10;99.90
4677;DHT22;2352;48.180;11.478;2022-11-21T02:16:53;7.10;99.80
4677;DHT22;2352;48.180;11.478;2022-11-21T02:20:00;7.10;99.90
4677;DHT22;2352;48.180;11.478;2022-11-21T02:23:14;7.20;99.90
4677;DHT22;2352;48.180;11.478;2022-11-21T02:26:20;7.20;99.90
4677;DHT22;2352;48.180;11.478;2022-11-21T02:29:23;7.30;99.70
4677;DHT22;2352;48.180;11.478;2022-11-21T02:32:32;7.30;99.40
4677;DHT22;2352;48.180;11.478;2022-11-21T02:35:36;7.20;99.60
4677;DHT22;2352;48.180;11.478;2022-11-21T02:38:39;7.20;99.70
4677;DHT22;2352;48.180;11.478;2022-11-21T02:41:50;7.20;99.20
4677;DHT22;2352;48.180;11.478;2022-11-21T02:44:59;7.10;99.80
4677;DHT22;2352;48.180;11.478;2022-11-21T02:48:05;7.20;99.40
4677;DHT22;2352;48.180;11.478;2022-11-21T02:51:08;7.20;99.30
4677;DHT22;2352;48.180;11.478;2022-11-21T02:54:10;7.20;99.10
4677;DHT22;2352;48.180;11.478;2022-11-21T02:57:15;7.20;99.20
4677;DHT22;2352;48.180;11.478;2022-11-21T03:00:18;7.20;99.20
4677;DHT22;2352;48.180;11.478;2022-11-21T03:03:22;7.30;99.00
4677;DHT22;2352;48.180;11.478;2022-11-21T03:06:25;7.30;99.20
4677;DHT22;2352;48.180;11.478;2022-11-21T03:09:27;7.40;98.90
4677;DHT22;2352;48.180;11.478;2022-11-21T03:12:34;7.40;99.00
4677;DHT22;2352;48.180;11.478;2022-11-21T03:15:37;7.50;98.40
4677;DHT22;2352;48.180;11.478;2022-11-21T03:18:40;7.30;98.70
4677;DHT22;2352;48.180;11.478;2022-11-21T03:21:43;7.30;98.40
4677;DHT22;2352;48.180;11.478;2022-11-21T03:24:46;7.40;98.20
4677;DHT22;2352;48.180;11.478;2022-11-21T03:27:51;7.40;98.40
4677;DHT22;2352;48.180;11.478;2022-11-21T03:30:54;7.40;98.10
4677;DHT22;2352;48.180;11.478;2022-11-21T03:33:57;7.40;98.10
4677;DHT22;2352;48.180;11.478;2022-11-21T03:37:01;7.30;97.90
4677;DHT22;2352;48.180;11.478;2022-11-21T03:40:05;7.40;97.90
4677;DHT22;2352;48.180;11.478;2022-11-21T03:43:09;7.20;97.80
4677;DHT22;2352;48.180;11.478;2022-11-21T03:46:12;7.20;98.00
4677;DHT22;2352;48.180;11.478;2022-11-21T03:49:15;7.30;97.90
4677;DHT22;2352;48.180;11.478;2022-11-21T03:52:18;7.20;98.00
4677;DHT22;2352;48.180;11.478;2022-11-21T03:55:21;7.30;97.80
4677;DHT22;2352;48.180;11.478;2022-11-21T03:58:25;7.40;98.10
4677;DHT22;2352;48.180;11.478;2022-11-21T04:01:28;7.40;97.90
4677;DHT22;2352;48.180;11.478;2022-11-21T04:04:37;7.40;97.50
4677;DHT22;2352;48.180;11.478;2022-11-21T04:07:40;7.40;98.00
4677;DHT22;2352;48.180;11.478;2022-11-21T04:10:45;7.30;97.90
4677;DHT22;2352;48.180;11.478;2022-11-21T04:13:50;7.30;97.90
4677;DHT22;2352;48.180;11.478;2022-11-21T04:16:53;7.30;97.90
4677;DHT22;2352;48.180;11.478;2022-11-21T04:19:56;7.30;98.00
4677;DHT22;2352;48.180;11.478;2022-11-21T04:22:58;7.40;97.90
4677;DHT22;2352;48.180;11.478;2022-11-21T04:26:01;7.40;97.80
4677;DHT22;2352;48.180;11.478;2022-11-21T04:29:06;7.40;97.90
4677;DHT22;2352;48.180;11.478;2022-11-21T04:32:09;7.30;98.70
4677;DHT22;2352;48.180;11.478;2022-11-21T04:35:12;7.30;98.60
4677;DHT22;2352;48.180;11.478;2022-11-21T04:38:14;7.30;99.00
4677;DHT22;2352;48.180;11.478;2022-11-21T04:41:17;7.50;99.10
4677;DHT22;2352;48.180;11.478;2022-11-21T04:44:22;7.30;99.00
4677;DHT22;2352;48.180;11.478;2022-11-21T04:47:24;7.30;99.60
4677;DHT22;2352;48.180;11.478;2022-11-21T04:50:27;7.30;99.60
4677;DHT22;2352;48.180;11.478;2022-11-21T04:53:30;7.30;99.60
4677;DHT22;2352;48.180;11.478;2022-11-21T04:56:33;7.30;99.90
4677;DHT22;2352;48.180;11.478;2022-11-21T04:59:38;7.10;99.90
4677;DHT22;2352;48.180;11.478;2022-11-21T05:02:41;7.10;99.90
4677;DHT22;2352;48.180;11.478;2022-11-21T05:05:44;7.10;99.90
4677;DHT22;2352;48.180;11.478;2022-11-21T05:08:47;7.30;99.90
4677;DHT22;2352;48.180;11.478;2022-11-21T05:11:54;7.20;99.90
4677;DHT22;2352;48.180;11.478;2022-11-21T05:15:16;7.30;99.90
4677;DHT22;2352;48.180;11.478;2022-11-21T05:18:25;7.30;99.90
4677;DHT22;2352;48.180;11.478;2022-11-21T05:21:28;7.20;99.90
4677;DHT22;2352;48.180;11.478;2022-11-21T05:24:31;7.20;99.90
4677;DHT22;2352;48.180;11.478;2022-11-21T05:27:34;7.20;99.90
4677;DHT22;2352;48.180;11.478;2022-11-21T05:30:38;7.10;99.90
4677;DHT22;2352;48.180;11.478;2022-11-21T05:33:41;7.20;99.90
4677;DHT22;2352;48.180;11.478;2022-11-21T05:36:44;7.20;99.90
4677;DHT22;2352;48.180;11.478;2022-11-21T05:39:47;7.10;99.90
4677;DHT22;2352;48.180;11.478;2022-11-21T05:42:50;7.20;99.90
4677;DHT22;2352;48.180;11.478;2022-11-21T05:46:12;7.30;99.90
4677;DHT22;2352;48.180;11.478;2022-11-21T05:49:15;7.30;99.90
4677;DHT22;2352;48.180;11.478;2022-11-21T05:52:18;7.20;99.90
4677;DHT22;2352;48.180;11.478;2022-11-21T05:55:21;7.30;99.90
4677;DHT22;2352;48.180;11.478;2022-11-21T05:58:24;7.40;99.90
4677;DHT22;2352;48.180;11.478;2022-11-21T06:01:29;7.40;99.90
4677;DHT22;2352;48.180;11.478;2022-11-21T06:04:49;7.30;99.90
4677;DHT22;2352;48.180;11.478;2022-11-21T06:07:52;7.30;99.90
4677;DHT22;2352;48.180;11.478;2022-11-21T06:10:55;7.30;99.90
4677;DHT22;2352;48.180;11.478;2022-11-21T06:13:58;7.30;99.90
4677;DHT22;2352;48.180;11.478;2022-11-21T06:17:02;7.20;99.90
4677;DHT22;2352;48.180;11.478;2022-11-21T06:20:06;7.00;99.90
4677;DHT22;2352;48.180;11.478;2022-11-21T06:23:10;7.10;99.90
4677;DHT22;2352;48.180;11.478;2022-11-21T06:26:14;7.00;99.90
4677;DHT22;2352;48.180;11.478;2022-11-21T06:29:17;7.00;99.90
4677;DHT22;2352;48.180;11.478;2022-11-21T06:32:24;7.10;99.90
4677;DHT22;2352;48.180;11.478;2022-11-21T06:35:27;7.10;99.90
4677;DHT22;2352;48.180;11.478;2022-11-21T06:38:29;7.10;99.90
4677;DHT22;2352;48.180;11.478;2022-11-21T06:41:32;7.10;99.90
4677;DHT22;2352;48.180;11.478;2022-11-21T06:44:35;7.10;99.90
4677;DHT22;2352;48.180;11.478;2022-11-21T06:47:39;7.10;99.90
4677;DHT22;2352;48.180;11.478;2022-11-21T06:50:42;7.10;99.90
4677;DHT22;2352;48.180;11.478;2022-11-21T06:53:46;7.10;99.90
4677;DHT22;2352;48.180;11.478;2022-11-21T06:56:51;7.10;99.90
4677;DHT22;2352;48.180;11.478;2022-11-21T06:59:56;7.10;99.90
4677;DHT22;2352;48.180;11.478;2022-11-21T07:03:01;7.10;99.90
4677;DHT22;2352;48.180;11.478;2022-11-21T07:06:05;7.20;99.90
4677;DHT22;2352;48.180;11.478;2022-11-21T07:09:08;7.20;99.90
4677;DHT22;2352;48.180;11.478;2022-11-21T07:12:31;7.20;99.90
4677;DHT22;2352;48.180;11.478;2022-11-21T07:15:53;7.20;99.90
4677;DHT22;2352;48.180;11.478;2022-11-21T07:18:57;7.20;99.90
4677;DHT22;2352;48.180;11.478;2022-11-21T07:22:00;7.40;99.90
4677;DHT22;2352;48.180;11.478;2022-11-21T07:25:04;7.40;99.90
4677;DHT22;2352;48.180;11.478;2022-11-21T07:28:07;7.50;99.90
4677;DHT22;2352;48.180;11.478;2022-11-21T07:31:10;7.50;99.90
4677;DHT22;2352;48.180;11.478;2022-11-21T07:34:16;7.50;99.90
4677;DHT22;2352;48.180;11.478;2022-11-21T07:37:19;7.50;99.60
4677;DHT22;2352;48.180;11.478;2022-11-21T07:40:22;7.40;99.90
4677;DHT22;2352;48.180;11.478;2022-11-21T07:43:25;7.40;99.60
4677;DHT22;2352;48.180;11.478;2022-11-21T07:46:28;7.40;99.60
4677;DHT22;2352;48.180;11.478;2022-11-21T07:49:32;7.40;99.10
4677;DHT22;2352;48.180;11.478;2022-11-21T07:52:35;7.40;99.30
4677;DHT22;2352;48.180;11.478;2022-11-21T07:55:38;7.30;99.30
4677;DHT22;2352;48.180;11.478;2022-11-21T07:58:41;7.30;99.10
4677;DHT22;2352;48.180;11.478;2022-11-21T08:01:45;7.20;99.50
4677;DHT22;2352;48.180;11.478;2022-11-21T08:04:50;7.30;99.20
4677;DHT22;2352;48.180;11.478;2022-11-21T08:07:53;7.30;99.20
4677;DHT22;2352;48.180;11.478;2022-11-21T08:10:56;7.30;99.20
4677;DHT22;2352;48.180;11.478;2022-11-21T08:13:59;7.20;99.00
4677;DHT22;2352;48.180;11.478;2022-11-21T08:17:03;7.20;99.30
4677;DHT22;2352;48.180;11.478;2022-11-21T08:20:09;7.30;99.50
4677;DHT22;2352;48.180;11.478;2022-11-21T08:23:12;7.20;99.30
4677;DHT22;2352;48.180;11.478;2022-11-21T08:26:15;7.30;99.20
4677;DHT22;2352;48.180;11.478;2022-11-21T08:29:18;7.40;99.50
4677;DHT22;2352;48.180;11.478;2022-11-21T08:32:21;7.50;99.40
4677;DHT22;2352;48.180;11.478;2022-11-21T08:35:25;7.50;98.90
4677;DHT22;2352;48.180;11.478;2022-11-21T08:38:28;7.50;98.90
4677;DHT22;2352;48.180;11.478;2022-11-21T08:41:31;7.50;98.70
4677;DHT22;2352;48.180;11.478;2022-11-21T08:44:51;7.40;98.80
4677;DHT22;2352;48.180;11.478;2022-11-21T08:47:54;7.40;99.10
4677;DHT22;2352;48.180;11.478;2022-11-21T08:50:59;7.50;98.90
4677;DHT22;2352;48.180;11.478;2022-11-21T08:54:02;7.50;99.10
4677;DHT22;2352;48.180;11.478;2022-11-21T08:57:05;7.60;98.70
4677;DHT22;2352;48.180;11.478;2022-11-21T09:00:09;7.70;98.40
4677;DHT22;2352;48.180;11.478;2022-11-21T09:03:13;7.60;98.70
4677;DHT22;2352;48.180;11.478;2022-11-21T09:06:24;7.70;98.30
4677;DHT22;2352;48.180;11.478;2022-11-21T09:09:27;7.80;98.30
4677;DHT22;2352;48.180;11.478;2022-11-21T09:12:30;7.80;98.00
4677;DHT22;2352;48.180;11.478;2022-11-21T09:15:33;7.90;98.20
4677;DHT22;2352;48.180;11.478;2022-11-21T09:18:54;8.00;98.10
4677;DHT22;2352;48.180;11.478;2022-11-21T09:21:59;8.20;97.70
4677;DHT22;2352;48.180;11.478;2022-11-21T09:25:02;8.30;97.50
4677;DHT22;2352;48.180;11.478;2022-11-21T09:28:07;8.40;97.30
4677;DHT22;2352;48.180;11.478;2022-11-21T09:31:11;8.50;97.60
4677;DHT22;2352;48.180;11.478;2022-11-21T09:34:14;8.60;97.00
4677;DHT22;2352;48.180;11.478;2022-11-21T09:37:18;8.60;96.80
4677;DHT22;2352;48.180;11.478;2022-11-21T09:40:21;8.60;96.90
4677;DHT22;2352;48.180;11.478;2022-11-21T09:43:39;8.70;97.70
4677;DHT22;2352;48.180;11.478;2022-11-21T09:46:46;8.90;97.10
4677;DHT22;2352;48.180;11.478;2022-11-21T09:49:55;9.00;96.70
4677;DHT22;2352;48.180;11.478;2022-11-21T09:53:04;9.10;96.60
4677;DHT22;2352;48.180;11.478;2022-11-21T09:56:11;9.30;95.90
4677;DHT22;2352;48.180;11.478;2022-11-21T09:59:27;9.20;94.90
4677;DHT22;2352;48.180;11.478;2022-11-21T10:02:31;9.30;94.90
4677;DHT22;2352;48.180;11.478;2022-11-21T10:05:40;9.30;95.00
4677;DHT22;2352;48.180;11.478;2022-11-21T10:08:54;9.30;95.00
4677;DHT22;2352;48.180;11.478;2022-11-21T10:12:06;9.40;94.80
4677;DHT22;2352;48.180;11.478;2022-11-21T10:15:36;9.50;93.90
4677;DHT22;2352;48.180;11.478;2022-11-21T10:19:04;9.40;94.00
4677;DHT22;2352;48.180;11.478;2022-11-21T10:22:34;9.40;93.80
4677;DHT22;2352;48.180;11.478;2022-11-21T10:25:46;9.30;94.20
4677;DHT22;2352;48.180;11.478;2022-11-21T10:28:55;9.20;94.00
4677;DHT22;2352;48.180;11.478;2022-11-21T10:32:02;9.20;94.00
4677;DHT22;2352;48.180;11.478;2022-11-21T10:35:13;9.30;94.20
4677;DHT22;2352;48.180;11.478;2022-11-21T10:38:20;9.30;92.30
4677;DHT22;2352;48.180;11.478;2022-11-21T10:41:36;9.30;92.80
4677;DHT22;2352;48.180;11.478;2022-11-21T10:44:39;9.40;92.80
4677;DHT22;2352;48.180;11.478;2022-11-21T10:48:00;9.50;92.40
4677;DHT22;2352;48.180;11.478;2022-11-21T10:51:17;9.60;92.70
4677;DHT22;2352;48.180;11.478;2022-11-21T10:54:24;9.80;91.90
4677;DHT22;2352;48.180;11.478;2022-11-21T10:57:43;9.90;91.40
4677;DHT22;2352;48.180;11.478;2022-11-21T11:00:56;10.40;91.80
4677;DHT22;2352;48.180;11.478;2022-11-21T11:04:15;10.60;90.30
4677;DHT22;2352;48.180;11.478;2022-11-21T11:07:38;10.70;89.10
4677;DHT22;2352;48.180;11.478;2022-11-21T11:10:42;10.90;89.00
4677;DHT22;2352;48.180;11.478;2022-11-21T11:13:56;11.10;87.80
4677;DHT22;2352;48.180;11.478;2022-11-21T11:16:59;11.30;89.20
4677;DHT22;2352;48.180;11.478;2022-11-21T11:20:05;11.40;86.70
4677;DHT22;2352;48.180;11.478;2022-11-21T11:23:15;11.20;83.00
4677;DHT22;2352;48.180;11.478;2022-11-21T11:26:22;11.00;82.30
4677;DHT22;2352;48.180;11.478;2022-11-21T11:29:27;10.80;82.80
4677;DHT22;2352;48.180;11.478;2022-11-21T11:32:31;10.90;83.60
4677;DHT22;2352;48.180;11.478;2022-11-21T11:35:35;11.00;84.30
4677;DHT22;2352;48.180;11.478;2022-11-21T11:38:42;11.10;84.10
4677;DHT22;2352;48.180;11.478;2022-11-21T11:42:06;11.00;84.00
4677;DHT22;2352;48.180;11.478;2022-11-21T11:45:40;11.00;83.50
4677;DHT22;2352;48.180;11.478;2022-11-21T11:49:14;10.80;82.60
4677;DHT22;2352;48.180;11.478;2022-11-21T11:52:23;10.70;84.00
4677;DHT22;2352;48.180;11.478;2022-11-21T11:55:32;10.60;84.70
4677;DHT22;2352;48.180;11.478;2022-11-21T11:58:41;10.60;84.00
4677;DHT22;2352;48.180;11.478;2022-11-21T12:01:50;10.60;84.50
4677;DHT22;2352;48.180;11.478;2022-11-21T12:04:58;10.60;85.00
4677;DHT22;2352;48.180;11.478;2022-11-21T12:08:07;10.60;84.50
4677;DHT22;2352;48.180;11.478;2022-11-21T12:11:40;10.50;84.20
4677;DHT22;2352;48.180;11.478;2022-11-21T12:15:09;10.50;85.50
4677;DHT22;2352;48.180;11.478;2022-11-21T12:18:38;10.40;84.20
4677;DHT22;2352;48.180;11.478;2022-11-21T12:21:42;10.40;85.10
4677;DHT22;2352;48.180;11.478;2022-11-21T12:24:47;10.60;86.60
4677;DHT22;2352;48.180;11.478;2022-11-21T12:27:53;10.90;84.10
4677;DHT22;2352;48.180;11.478;2022-11-21T12:31:04;10.90;83.70
4677;DHT22;2352;48.180;11.478;2022-11-21T12:34:20;11.00;85.10
4677;DHT22;2352;48.180;11.478;2022-11-21T12:37:35;11.00;83.80
4677;DHT22;2352;48.180;11.478;2022-11-21T12:40:49;11.00;84.60
4677;DHT22;2352;48.180;11.478;2022-11-21T12:44:03;11.00;82.20
4677;DHT22;2352;48.180;11.478;2022-11-21T12:47:22;10.90;82.90
4677;DHT22;2352;48.180;11.478;2022-11-21T12:50:33;10.80;82.90
4677;DHT22;2352;48.180;11.478;2022-11-21T12:54:01;10.80;83.80
4677;DHT22;2352;48.180;11.478;2022-11-21T12:57:33;10.70;85.20
4677;DHT22;2352;48.180;11.478;2022-11-21T13:00:46;10.70;85.20
4677;DHT22;2352;48.180;11.478;2022-11-21T13:03:57;10.70;84.90
4677;DHT22;2352;48.180;11.478;2022-11-21T13:07:04;10.70;84.50
4677;DHT22;2352;48.180;11.478;2022-11-21T13:10:13;10.80;84.00
4677;DHT22;2352;48.180;11.478;2022-11-21T13:13:22;10.80;85.40
4677;DHT22;2352;48.180;11.478;2022-11-21T13:16:29;10.80;85.30
4677;DHT22;2352;48.180;11.478;2022-11-21T13:19:48;10.80;85.80
4677;DHT22;2352;48.180;11.478;2022-11-21T13:22:56;10.90;83.70
4677;DHT22;2352;48.180;11.478;2022-11-21T13:26:00;10.80;84.10
4677;DHT22;2352;48.180;11.478;2022-11-21T13:29:07;10.90;83.80
4677;DHT22;2352;48.180;11.478;2022-11-21T13:32:37;10.90;84.00
4677;DHT22;2352;48.180;11.478;2022-11-21T13:36:04;10.90;84.60
4677;DHT22;2352;48.180;11.478;2022-11-21T13:39:33;10.90;86.50
4677;DHT22;2352;48.180;11.478;2022-11-21T13:43:12;10.90;85.40
4677;DHT22;2352;48.180;11.478;2022-11-21T13:46:56;11.00;84.40
4677;DHT22;2352;48.180;11.478;2022-11-21T13:50:05;11.00;83.10
4677;DHT22;2352;48.180;11.478;2022-11-21T13:53:24;10.90;83.30
4677;DHT22;2352;48.180;11.478;2022-11-21T13:56:35;10.90;83.80
4677;DHT22;2352;48.180;11.478;2022-11-21T13:59:51;11.00;81.20
4677;DHT22;2352;48.180;11.478;2022-11-21T14:06:36;11.10;84.10
4677;DHT22;2352;48.180;11.478;2022-11-21T14:09:46;11.10;79.00
4677;DHT22;2352;48.180;11.478;2022-11-21T14:12:53;11.20;79.70
4677;DHT22;2352;48.180;11.478;2022-11-21T14:16:05;11.30;83.50
4677;DHT22;2352;48.180;11.478;2022-11-21T14:19:12;11.40;81.40
4677;DHT22;2352;48.180;11.478;2022-11-21T14:22:24;11.40;84.20
4677;DHT22;2352;48.180;11.478;2022-11-21T14:25:41;11.40;82.40
4677;DHT22;2352;48.180;11.478;2022-11-21T14:28:45;11.40;82.00
4677;DHT22;2352;48.180;11.478;2022-11-21T14:31:49;11.30;82.40
4677;DHT22;2352;48.180;11.478;2022-11-21T14:34:52;11.20;80.90
4677;DHT22;2352;48.180;11.478;2022-11-21T14:37:57;11.20;80.50
4677;DHT22;2352;48.180;11.478;2022-11-21T14:41:26;11.10;81.20
4677;DHT22;2352;48.180;11.478;2022-11-21T14:44:31;11.10;81.40
4677;DHT22;2352;48.180;11.478;2022-11-21T14:47:35;11.10;81.80
4677;DHT22;2352;48.180;11.478;2022-11-21T14:50:47;11.10;83.00
4677;DHT22;2352;48.180;11.478;2022-11-21T14:53:52;11.10;82.70
4677;DHT22;2352;48.180;11.478;2022-11-21T14:56:57;11.10;82.60
4677;DHT22;2352;48.180;11.478;2022-11-21T15:00:05;11.10;83.20
4677;DHT22;2352;48.180;11.478;2022-11-21T15:03:18;11.00;83.10
4677;DHT22;2352;48.180;11.478;2022-11-21T15:06:21;11.10;85.00
4677;DHT22;2352;48.180;11.478;2022-11-21T15:09:24;11.00;84.00
4677;DHT22;2352;48.180;11.478;2022-11-21T15:12:52;11.00;84.70
4677;DHT22;2352;48.180;11.478;2022-11-21T15:15:59;11.00;85.50
4677;DHT22;2352;48.180;11.478;2022-11-21T15:19:07;11.00;84.60
4677;DHT22;2352;48.180;11.478;2022-11-21T15:22:20;11.00;85.30
4677;DHT22;2352;48.180;11.478;2022-11-21T15:25:27;11.00;86.80
4677;DHT22;2352;48.180;11.478;2022-11-21T15:28:30;11.10;85.80
4677;DHT22;2352;48.180;11.478;2022-11-21T15:31:35;11.10;85.70
4677;DHT22;2352;48.180;11.478;2022-11-21T15:34:38;11.00;86.90
4677;DHT22;2352;48.180;11.478;2022-11-21T15:37:47;10.90;87.80
4677;DHT22;2352;48.180;11.478;2022-11-21T15:41:23;10.90;87.30
4677;DHT22;2352;48.180;11.478;2022-11-21T15:44:26;10.90;88.30
4677;DHT22;2352;48.180;11.478;2022-11-21T15:47:31;10.80;87.80
4677;DHT22;2352;48.180;11.478;2022-11-21T15:50:34;10.80;86.80
4677;DHT22;2352;48.180;11.478;2022-11-21T15:53:39;10.70;88.60
4677;DHT22;2352;48.180;11.478;2022-11-21T15:56:42;10.60;88.40
4677;DHT22;2352;48.180;11.478;2022-11-21T15:59:45;10.60;87.80
4677;DHT22;2352;48.180;11.478;2022-11-21T16:02:49;10.60;87.00
4677;DHT22;2352;48.180;11.478;2022-11-21T16:05:52;10.60;87.00
4677;DHT22;2352;48.180;11.478;2022-11-21T16:08:55;10.50;87.40
4677;DHT22;2352;48.180;11.478;2022-11-21T16:11:58;10.40;87.60
4677;DHT22;2352;48.180;11.478;2022-11-21T16:15:01;10.30;87.50
4677;DHT22;2352;48.180;11.478;2022-11-21T16:18:06;10.20;88.10
4677;DHT22;2352;48.180;11.478;2022-11-21T16:21:10;10.20;88.10
4677;DHT22;2352;48.180;11.478;2022-11-21T16:24:13;10.00;88.20
4677;DHT22;2352;48.180;11.478;2022-11-21T16:27:16;9.90;88.90
4677;DHT22;2352;48.180;11.478;2022-11-21T16:30:19;9.90;89.00
4677;DHT22;2352;48.180;11.478;2022-11-21T16:33:24;9.80;89.80
4677;DHT22;2352;48.180;11.478;2022-11-21T16:36:29;9.70;90.10
4677;DHT22;2352;48.180;11.478;2022-11-21T16:39:32;9.60;90.50
4677;DHT22;2352;48.180;11.478;2022-11-21T16:42:36;9.70;90.50
4677;DHT22;2352;48.180;11.478;2022-11-21T16:45:38;9.70;90.50
4677;DHT22;2352;48.180;11.478;2022-11-21T16:48:43;9.60;91.00
4677;DHT22;2352;48.180;11.478;2022-11-21T16:51:46;9.60;90.90
4677;DHT22;2352;48.180;11.478;2022-11-21T16:54:49;9.60;90.60
4677;DHT22;2352;48.180;11.478;2022-11-21T16:57:52;9.50;90.70
4677;DHT22;2352;48.180;11.478;2022-11-21T17:01:06;9.50;90.90
4677;DHT22;2352;48.180;11.478;2022-11-21T17:04:10;9.50;91.00
4677;DHT22;2352;48.180;11.478;2022-11-21T17:07:18;9.50;91.10
4677;DHT22;2352;48.180;11.478;2022-11-21T17:10:21;9.40;91.20
4677;DHT22;2352;48.180;11.478;2022-11-21T17:13:24;9.40;91.10
4677;DHT22;2352;48.180;11.478;2022-11-21T17:16:27;9.30;91.00
4677;DHT22;2352;48.180;11.478;2022-11-21T17:19:32;9.20;91.20
4677;DHT22;2352;48.180;11.478;2022-11-21T17:22:35;9.20;91.40
4677;DHT22;2352;48.180;11.478;2022-11-21T17:25:38;9.20;91.50
4677;DHT22;2352;48.180;11.478;2022-11-21T17:28:42;9.20;91.40
4677;DHT22;2352;48.180;11.478;2022-11-21T17:31:48;9.20;91.50
4677;DHT22;2352;48.180;11.478;2022-11-21T17:34:53;9.10;91.50
4677;DHT22;2352;48.180;11.478;2022-11-21T17:37:56;9.10;91.80
4677;DHT22;2352;48.180;11.478;2022-11-21T17:40:59;9.10;92.00
4677;DHT22;2352;48.180;11.478;2022-11-21T17:44:02;9.10;92.00
4677;DHT22;2352;48.180;11.478;2022-11-21T17:47:05;9.10;91.90
4677;DHT22;2352;48.180;11.478;2022-11-21T17:50:10;9.10;91.80
4677;DHT22;2352;48.180;11.478;2022-11-21T17:53:13;9.00;92.00
4677;DHT22;2352;48.180;11.478;2022-11-21T17:56:17;9.00;91.70
4677;DHT22;2352;48.180;11.478;2022-11-21T17:59:20;8.90;91.80
4677;DHT22;2352;48.180;11.478;2022-11-21T18:02:23;8.90;92.00
4677;DHT22;2352;48.180;11.478;2022-11-21T18:05:28;8.90;91.90
4677;DHT22;2352;48.180;11.478;2022-11-21T18:08:31;9.00;92.10
4677;DHT22;2352;48.180;11.478;2022-11-21T18:11:36;9.00;91.70
4677;DHT22;2352;48.180;11.478;2022-11-21T18:14:41;8.90;91.40
4677;DHT22;2352;48.180;11.478;2022-11-21T18:17:44;8.90;91.30
4677;DHT22;2352;48.180;11.478;2022-11-21T18:20:49;8.90;91.60
4677;DHT22;2352;48.180;11.478;2022-11-21T18:23:53;9.00;91.50
4677;DHT22;2352;48.180;11.478;2022-11-21T18:26:56;8.90;91.20
4677;DHT22;2352;48.180;11.478;2022-11-21T18:29:59;8.90;92.00
4677;DHT22;2352;48.180;11.478;2022-11-21T18:33:02;8.80;92.80
4677;DHT22;2352;48.180;11.478;2022-11-21T18:36:08;8.70;91.90
4677;DHT22;2352;48.180;11.478;2022-11-21T18:39:11;8.90;91.50
4677;DHT22;2352;48.180;11.478;2022-11-21T18:42:16;9.00;91.20
4677;DHT22;2352;48.180;11.478;2022-11-21T18:45:19;8.90;90.80
4677;DHT22;2352;48.180;11.478;2022-11-21T18:48:22;9.00;90.90
4677;DHT22;2352;48.180;11.478;2022-11-21T18:51:28;9.00;90.70
4677;DHT22;2352;48.180;11.478;2022-11-21T18:54:31;8.80;90.40
4677;DHT22;2352;48.180;11.478;2022-11-21T18:57:34;8.80;90.90
4677;DHT22;2352;48.180;11.478;2022-11-21T19:00:36;8.80;90.80
4677;DHT22;2352;48.180;11.478;2022-11-21T19:03:40;8.70;90.30
4677;DHT22;2352;48.180;11.478;2022-11-21T19:06:44;8.70;90.80
4677;DHT22;2352;48.180;11.478;2022-11-21T19:09:47;8.70;90.50
4677;DHT22;2352;48.180;11.478;2022-11-21T19:12:50;8.70;90.40
4677;DHT22;2352;48.180;11.478;2022-11-21T19:15:53;8.70;90.50
4677;DHT22;2352;48.180;11.478;2022-11-21T19:18:56;8.70;90.50
4677;DHT22;2352;48.180;11.478;2022-11-21T19:22:20;8.60;90.60
4677;DHT22;2352;48.180;11.478;2022-11-21T19:25:23;8.60;90.60
4677;DHT22;2352;48.180;11.478;2022-11-21T19:28:27;8.50;90.70
4677;DHT22;2352;48.180;11.478;2022-11-21T19:31:30;8.60;90.80
4677;DHT22;2352;48.180;11.478;2022-11-21T19:34:33;8.50;90.60
4677;DHT22;2352;48.180;11.478;2022-11-21T19:37:38;8.50;90.70
4677;DHT22;2352;48.180;11.478;2022-11-21T19:40:41;8.50;90.70
4677;DHT22;2352;48.180;11.478;2022-11-21T19:43:58;8.50;91.20
4677;DHT22;2352;48.180;11.478;2022-11-21T19:47:02;8.50;90.90
4677;DHT22;2352;48.180;11.478;2022-11-21T19:50:05;8.50;90.80
4677;DHT22;2352;48.180;11.478;2022-11-21T19:53:10;8.50;91.00
4677;DHT22;2352;48.180;11.478;2022-11-21T19:56:14;8.40;91.20
4677;DHT22;2352;48.180;11.478;2022-11-21T19:59:18;8.50;91.20
4677;DHT22;2352;48.180;11.478;2022-11-21T20:02:21;8.40;90.90
4677;DHT22;2352;48.180;11.478;2022-11-21T20:05:24;8.40;90.90
4677;DHT22;2352;48.180;11.478;2022-11-21T20:08:28;8.40;91.10
4677;DHT22;2352;48.180;11.478;2022-11-21T20:11:32;8.30;90.70
4677;DHT22;2352;48.180;11.478;2022-11-21T20:14:35;8.30;90.90
4677;DHT22;2352;48.180;11.478;2022-11-21T20:17:38;8.40;91.40